createdAt,value
2023-03-27T00:51:52.284Z,2.42
2023-03-27T01:52:01.957Z,1.86
2023-03-27T02:21:55.802Z,1.4
2023-03-27T02:51:55.583Z,1.25
2023-03-27T03:21:53.714Z,0.96
2023-03-27T03:52:04.240Z,0.28
2023-03-27T04:21:58.738Z,-0.38
2023-03-27T04:51:56.234Z,-0.36
2023-03-27T05:21:49.825Z,-0.29
2023-03-27T05:51:49.574Z,0.08
2023-03-27T06:21:59.176Z,1.68
2023-03-27T06:51:52.975Z,2.5
2023-03-27T07:51:54.866Z,3.81
2023-03-27T08:21:54.215Z,4.82
2023-03-27T08:51:47.716Z,5.36
2023-03-27T09:21:57.595Z,4.87
2023-03-27T09:51:57.146Z,6.28
2023-03-27T10:21:52.768Z,6.23
2023-03-27T10:51:55.917Z,7.35
2023-03-27T11:21:48.381Z,7.15
2023-03-27T11:51:48.541Z,8.17
2023-03-27T12:21:59.864Z,8.38
2023-03-27T13:21:51.239Z,6.25
2023-03-27T13:51:50.845Z,6.77
2023-03-27T14:21:46.691Z,9.68
2023-03-27T15:51:53.248Z,6.64
2023-03-27T16:21:53.094Z,5.69
2023-03-27T16:51:44.973Z,4.66
2023-03-27T17:21:42.593Z,4.07
2023-03-27T17:51:51.949Z,3.56
2023-03-27T18:21:49.986Z,3.13
2023-03-27T18:51:52.217Z,2.86
2023-03-27T19:21:51.269Z,2.41
2023-03-27T19:51:41.233Z,2.19
2023-03-27T20:21:42.659Z,2.18
2023-03-27T20:51:46.063Z,2.06
2023-03-27T21:21:50.079Z,1.98
2023-03-27T21:51:50.547Z,1.54
2023-03-27T22:21:46.024Z,1.61
2023-03-27T22:51:39.245Z,1.87
